Cloridorme, Canada
Current Conditions -  °F | °C
As of 9:00 PM on Thursday 20 Nov 2014 (Local Time) from CYGP Reporting Station
Overcast Overcast  
Wind Chill: 14°   Ceiling: 7500
Heat Index: 23°   Visibility: 15mi
Dew Point: 19°   Wind: 8mph
Humidity: 86%   Direction: 310°NW
Pressure: 29.66"   Gusts: NA
Location:  49.17°N, 64.92°W
Report Text: CYGP 210200Z 31007KT 15SM OVC075 M05/M07 A2966 RMK AC8 SLP047
Loading
Personal Weather Stations






























Interactive Weather Map New forecast layout! Learn more

10-Day Weather Forecast

Advertisements
Track Severe Weather on mobile